SKUI/UIB METAR and TAF weather

Enter ICAO airport designator
Station Type Date Time Source
SKUI METAR 2020/07/11 21:00 UTC NOAA

SKUI 112100Z 21003KT 9999 SCT025 BKN200 30/22 A2981


Station Type Date Time Source
SKUI Decoded METAR 2020/07/11 21:00 UTC NOAA

Quibdo / El Carano, Colombia (SKUI) 05-43N 076-37W
Jul 11, 2020 - 05:00 PM EDT / 2020.07.11 2100 UTC
Wind: from the SSW (210 degrees) at 3 MPH (3 KT):0
Visibility: greater than 7 mile(s):0
Sky conditions: mostly cloudy
Temperature: 86 F (30 C)
Heat index: 91.8 F (33.2 C):1
Dew Point: 71 F (22 C)
Relative Humidity: 62%
Pressure (altimeter): 29.81 in. Hg (1009 hPa)
ob: SKUI 112100Z 21003KT 9999 SCT025 BKN200 30/22 A2981
cycle: 21

Station Type Date Time Source
SKUI TAF UTC NOAA

Error!

Example: see airport list